Terminal Aerodrome Forecast
Issued by NWS

Home | Current Version | Previous Version | Text Only | Print | Product List | Glossary On
Versions: 1 2 3 4 5 6 7 8 9 10 11 12 13 14 15
000
FTUS45 KFGZ 312320
TAFGCN
TAF
KGCN 312320Z 0100/0124 VRB05KT P6SM VCSH SCT080 BKN110
     FM010300 VRB03KT P6SM SCT080
     FM011800 VRB06KT P6SM VCSH BKN080
      TEMPO 0119/0123 4SM TSRA BKN040CB OVC080=

USA.gov is the U.S. government's official web portal to all federal, state and local government web resources and services.